Time;durP1;ratioP1;P1;durP2;ratioP2;P2;SDS_P1;SDS_P2;PMS_P1;PMS_P2;Temp;Humidity;BMP_temperature;BMP_pressure;BME280_temperature;BME280_humidity;BME280_pressure;Samples;Min_cycle;Max_cycle;Signal;HPM_P1;HPM_P2
2023/10/19 00:00:44;;;;;;;25.37;18.77;;;13.10;99.90;;;;;;4965169;28;20981;-71
2023/10/19 00:03:11;;;;;;;21.00;17.23;;;13.10;99.90;;;;;;4964397;28;20599;-71
2023/10/19 00:05:38;;;;;;;23.90;18.87;;;13.10;99.90;;;;;;4965097;28;20448;-71
2023/10/19 00:08:17;;;;;;;22.37;18.37;;;13.10;99.90;;;;;;4963688;28;20648;-71
2023/10/19 00:10:47;;;;;;;23.40;20.17;;;13.10;99.90;;;;;;4962576;28;20425;-71
2023/10/19 00:13:13;;;;;;;22.63;18.07;;;13.10;99.90;;;;;;4960008;28;20469;-71
2023/10/19 00:15:49;;;;;;;19.87;17.97;;;13.10;99.90;;;;;;4961687;28;20438;-71
2023/10/19 00:23:18;;;;;;;22.57;18.63;;;13.10;99.90;;;;;;4961053;28;20461;-70
2023/10/19 00:25:49;;;;;;;23.47;19.60;;;13.10;99.90;;;;;;4962397;28;20780;-71
2023/10/19 00:28:17;;;;;;;22.70;20.30;;;13.10;99.90;;;;;;4960296;28;20461;-71
2023/10/19 00:30:44;;;;;;;23.03;18.97;;;13.20;99.90;;;;;;4958740;28;20437;-71
2023/10/19 00:33:28;;;;;;;22.87;20.27;;;13.20;99.90;;;;;;4963225;28;20453;-71
2023/10/19 00:36:00;;;;;;;22.03;18.60;;;13.20;99.90;;;;;;4960119;28;20472;-72
2023/10/19 00:41:11;;;;;;;23.67;18.60;;;13.10;99.90;;;;;;4963527;28;21120;-71
2023/10/19 00:43:44;;;;;;;22.53;19.87;;;13.10;99.90;;;;;;4963145;28;20449;-73
2023/10/19 00:48:48;;;;;;;22.07;19.77;;;13.20;99.90;;;;;;4959991;28;20434;-71
2023/10/19 00:52:02;;;;;;;23.87;19.27;;;13.20;99.90;;;;;;4960870;28;20433;-71
2023/10/19 00:54:13;;;;;;;23.73;19.73;;;13.20;99.90;;;;;;4952460;28;20461;-71
2023/10/19 00:56:48;;;;;;;22.70;18.10;;;13.20;99.90;;;;;;4963086;28;20425;-70
2023/10/19 01:00:11;;;;;;;22.53;18.90;;;13.30;99.90;;;;;;4962314;28;20441;-70
2023/10/19 01:02:19;;;;;;;23.43;19.30;;;13.20;99.90;;;;;;4955289;28;20820;-71
2023/10/19 01:04:55;;;;;;;23.77;19.80;;;13.20;99.90;;;;;;4960520;28;20465;-71
2023/10/19 01:07:33;;;;;;;25.20;19.37;;;13.20;99.90;;;;;;4963827;28;20444;-71
2023/10/19 01:10:05;;;;;;;23.80;20.43;;;13.20;99.90;;;;;;4961172;28;20449;-71
2023/10/19 01:15:12;;;;;;;24.63;19.80;;;13.20;99.90;;;;;;4959587;28;20948;-71
2023/10/19 01:17:38;;;;;;;24.63;19.00;;;13.20;99.90;;;;;;4962850;28;20430;-71
2023/10/19 01:20:20;;;;;;;21.30;18.43;;;13.20;99.90;;;;;;4962624;28;20612;-72
2023/10/19 01:28:28;;;;;;;24.57;18.93;;;13.20;99.90;;;;;;4959595;28;20927;-71
2023/10/19 01:30:54;;;;;;;20.80;17.80;;;13.20;99.90;;;;;;4962933;28;20508;-71
2023/10/19 01:33:23;;;;;;;20.73;18.60;;;13.00;99.90;;;;;;4960145;28;20532;-71
2023/10/19 01:38:33;;;;;;;19.70;16.03;;;13.20;99.90;;;;;;4960631;28;20444;-71
2023/10/19 01:41:07;;;;;;;20.10;17.33;;;13.10;99.90;;;;;;4961351;28;20724;-72
2023/10/19 01:43:33;;;;;;;21.90;17.70;;;13.10;99.90;;;;;;4959858;28;20851;-71
2023/10/19 01:46:04;;;;;;;21.80;18.80;;;13.10;99.90;;;;;;4959790;28;20433;-71
2023/10/19 01:48:33;;;;;;;20.07;16.87;;;13.10;99.90;;;;;;4959380;28;20804;-71
2023/10/19 01:51:04;;;;;;;22.00;17.20;;;13.10;99.90;;;;;;4963828;28;20456;-71
2023/10/19 01:53:31;;;;;;;19.93;17.23;;;13.20;99.90;;;;;;4962153;28;20457;-71
2023/10/19 01:55:59;;;;;;;17.17;14.90;;;13.10;99.90;;;;;;4963115;28;20577;-71
2023/10/19 01:58:25;;;;;;;21.40;16.43;;;13.20;99.90;;;;;;4961658;28;20782;-71
2023/10/19 02:00:55;;;;;;;20.93;17.20;;;13.20;99.90;;;;;;4963061;28;20555;-72
2023/10/19 02:03:24;;;;;;;19.13;17.13;;;13.20;99.90;;;;;;4964309;28;20206;-72
2023/10/19 02:05:58;;;;;;;20.13;16.83;;;13.30;99.90;;;;;;4965371;28;20508;-71
2023/10/19 02:08:26;;;;;;;17.10;15.30;;;13.30;99.90;;;;;;4960090;28;20441;-71
2023/10/19 02:10:52;;;;;;;18.57;16.67;;;13.40;99.90;;;;;;4964952;28;20437;-70
2023/10/19 02:13:19;;;;;;;16.97;15.17;;;13.40;99.90;;;;;;4964085;28;20843;-70
2023/10/19 02:15:44;;;;;;;17.63;15.73;;;13.40;99.90;;;;;;4961974;28;20460;-70
2023/10/19 02:18:10;;;;;;;17.10;15.30;;;13.40;99.90;;;;;;4962560;28;20432;-70
2023/10/19 02:20:41;;;;;;;16.43;14.70;;;13.40;99.90;;;;;;4965772;28;20218;-71
2023/10/19 02:23:07;;;;;;;18.83;16.20;;;13.40;99.90;;;;;;4965041;28;20218;-71
2023/10/19 02:25:36;;;;;;;16.80;14.50;;;13.40;99.90;;;;;;4966056;28;20771;-71
2023/10/19 02:28:06;;;;;;;19.70;15.90;;;13.40;99.90;;;;;;4962197;28;21045;-71
2023/10/19 02:30:33;;;;;;;17.50;15.07;;;13.50;99.90;;;;;;4965410;28;20445;-71
2023/10/19 02:33:00;;;;;;;20.03;17.00;;;13.50;99.90;;;;;;4963363;28;20465;-71
2023/10/19 02:35:27;;;;;;;18.53;15.67;;;13.50;99.90;;;;;;4965804;28;20434;-71
2023/10/19 02:37:54;;;;;;;17.70;15.47;;;13.50;99.90;;;;;;4964933;28;21073;-71
2023/10/19 02:40:19;;;;;;;20.37;16.00;;;13.60;99.90;;;;;;4967146;28;20555;-71
2023/10/19 02:42:47;;;;;;;17.80;15.87;;;13.50;99.90;;;;;;4976437;28;20445;-71
2023/10/19 02:45:17;;;;;;;20.17;16.93;;;13.50;99.90;;;;;;4965351;28;20182;-71
2023/10/19 02:47:46;;;;;;;19.53;15.60;;;13.50;99.90;;;;;;4960701;28;20434;-72
2023/10/19 02:50:17;;;;;;;17.87;15.60;;;13.50;99.90;;;;;;4967405;28;20940;-71
2023/10/19 02:52:45;;;;;;;18.60;15.00;;;13.60;99.90;;;;;;4964505;28;20449;-72
2023/10/19 02:55:11;;;;;;;17.00;15.23;;;13.60;99.90;;;;;;4963644;28;20434;-72
2023/10/19 02:57:37;;;;;;;18.80;15.13;;;13.60;99.90;;;;;;4956759;28;20448;-72
2023/10/19 03:00:15;;;;;;;17.67;15.70;;;13.70;99.90;;;;;;4964321;28;20212;-71
2023/10/19 03:02:40;;;;;;;17.87;15.50;;;13.70;99.90;;;;;;4959487;28;20480;-72
2023/10/19 03:05:17;;;;;;;19.60;14.60;;;13.70;99.90;;;;;;4961567;28;20471;-71
2023/10/19 03:07:43;;;;;;;15.57;13.40;;;13.70;99.90;;;;;;4960083;28;20218;-72
2023/10/19 03:10:23;;;;;;;19.07;14.30;;;13.70;99.90;;;;;;4966657;28;20434;-72
2023/10/19 03:12:50;;;;;;;15.00;12.77;;;13.70;99.90;;;;;;4964381;28;20585;-72
2023/10/19 03:15:20;;;;;;;18.53;14.73;;;13.70;99.90;;;;;;4963373;28;20437;-71
2023/10/19 03:17:46;;;;;;;16.37;14.67;;;13.70;99.90;;;;;;4966237;28;20440;-72
2023/10/19 03:20:12;;;;;;;18.30;15.50;;;13.60;99.90;;;;;;4963790;28;20470;-71
2023/10/19 03:22:40;;;;;;;15.70;13.83;;;13.70;99.90;;;;;;4965139;28;20210;-71
2023/10/19 03:27:52;;;;;;;21.00;15.40;;;13.80;99.90;;;;;;4951843;28;20450;-72
2023/10/19 03:30:19;;;;;;;16.27;13.77;;;13.70;99.90;;;;;;4958078;28;20514;-71
2023/10/19 03:32:44;;;;;;;19.30;16.70;;;13.80;99.90;;;;;;4956786;28;20488;-73
2023/10/19 03:35:15;;;;;;;18.60;16.70;;;13.80;99.90;;;;;;4966388;28;20433;-72
2023/10/19 03:37:41;;;;;;;19.30;17.20;;;13.80;99.90;;;;;;4963130;28;20565;-70
2023/10/19 03:40:09;;;;;;;19.00;16.13;;;13.80;99.90;;;;;;4964207;28;20461;-70
2023/10/19 03:42:40;;;;;;;18.43;15.67;;;13.80;99.90;;;;;;4967188;28;21516;-70
2023/10/19 03:45:14;;;;;;;17.33;15.53;;;13.90;99.90;;;;;;4962253;28;20500;-70
2023/10/19 03:47:43;;;;;;;16.93;15.10;;;13.90;99.90;;;;;;4964106;28;20605;-71
2023/10/19 03:50:20;;;;;;;21.20;17.33;;;13.90;99.90;;;;;;4965750;28;20979;-71
2023/10/19 03:52:45;;;;;;;17.73;15.50;;;13.90;99.90;;;;;;4963881;28;20568;-71
2023/10/19 03:55:12;;;;;;;17.20;15.40;;;13.90;99.90;;;;;;4960768;28;20524;-71
2023/10/19 03:57:50;;;;;;;17.40;15.50;;;13.90;99.90;;;;;;4958625;28;20191;-71
2023/10/19 04:00:18;;;;;;;17.67;15.80;;;13.90;99.90;;;;;;4951965;28;20461;-71
2023/10/19 04:02:44;;;;;;;17.23;15.40;;;13.90;99.90;;;;;;4967265;28;20452;-72
2023/10/19 04:05:20;;;;;;;17.13;15.33;;;13.90;99.90;;;;;;4963329;28;20449;-72
2023/10/19 04:07:46;;;;;;;16.60;14.27;;;13.90;99.90;;;;;;4963629;28;20433;-71
2023/10/19 04:10:29;;;;;;;17.63;15.30;;;13.80;99.90;;;;;;4967801;28;20537;-71
2023/10/19 04:12:55;;;;;;;17.97;14.97;;;13.80;99.90;;;;;;4960502;28;20863;-71
2023/10/19 04:15:21;;;;;;;17.33;15.27;;;13.80;99.90;;;;;;4969709;28;20426;-72
2023/10/19 04:17:52;;;;;;;17.27;15.07;;;13.70;99.90;;;;;;4965048;28;20452;-71
2023/10/19 04:22:45;;;;;;;16.60;14.90;;;13.70;99.90;;;;;;4964780;28;21352;-71
2023/10/19 04:25:15;;;;;;;20.63;15.60;;;13.70;99.90;;;;;;4963668;28;20488;-72
2023/10/19 04:27:42;;;;;;;16.13;14.43;;;13.60;99.90;;;;;;4963148;28;20411;-71
2023/10/19 04:30:33;;;;;;;20.60;16.10;;;13.60;99.90;;;;;;4963223;28;21196;-72
2023/10/19 04:32:58;;;;;;;17.17;15.33;;;13.60;99.90;;;;;;4964620;28;20494;-71
2023/10/19 04:35:24;;;;;;;17.53;15.17;;;13.60;99.90;;;;;;4960740;28;20418;-72
2023/10/19 04:37:53;;;;;;;16.47;14.60;;;13.50;99.90;;;;;;4965051;28;20414;-72
2023/10/19 04:40:20;;;;;;;17.80;15.90;;;13.50;99.90;;;;;;4960797;28;20461;-72
2023/10/19 04:42:46;;;;;;;17.00;14.63;;;13.40;99.90;;;;;;4956652;28;20456;-72
2023/10/19 04:45:12;;;;;;;16.90;15.13;;;13.40;99.90;;;;;;4955834;28;20493;-72
2023/10/19 04:47:38;;;;;;;17.30;15.43;;;13.40;99.90;;;;;;4962399;28;20422;-72
2023/10/19 04:50:05;;;;;;;18.07;16.17;;;13.40;99.90;;;;;;4963001;28;20434;-71
2023/10/19 04:52:32;;;;;;;16.43;14.73;;;13.30;99.90;;;;;;4967890;28;20511;-71
2023/10/19 04:54:58;;;;;;;19.37;15.63;;;13.30;99.90;;;;;;4963976;28;21099;-71
2023/10/19 04:57:24;;;;;;;20.63;15.20;;;13.30;99.90;;;;;;4965025;28;20815;-71
2023/10/19 04:59:50;;;;;;;17.73;14.63;;;13.30;99.90;;;;;;4958839;28;20464;-71
2023/10/19 05:02:15;;;;;;;20.03;15.77;;;13.30;99.90;;;;;;4964948;28;20273;-71
2023/10/19 05:04:41;;;;;;;18.17;16.20;;;13.30;99.90;;;;;;4962032;28;20198;-71
2023/10/19 05:07:11;;;;;;;17.57;14.73;;;13.30;99.90;;;;;;4962821;28;20741;-71
2023/10/19 05:09:39;;;;;;;15.23;13.63;;;13.30;99.90;;;;;;4960378;28;20179;-71
2023/10/19 05:12:09;;;;;;;16.03;14.33;;;13.20;99.90;;;;;;4962691;28;20420;-72
2023/10/19 05:14:35;;;;;;;17.23;14.60;;;13.20;99.90;;;;;;4962297;28;20533;-72
2023/10/19 05:17:04;;;;;;;17.50;15.60;;;13.20;99.90;;;;;;4963681;28;20450;-72
2023/10/19 05:19:30;;;;;;;16.60;14.77;;;13.20;99.90;;;;;;4962751;28;20425;-72
2023/10/19 05:21:56;;;;;;;17.87;15.97;;;13.20;99.90;;;;;;4965336;28;20882;-72
2023/10/19 05:24:22;;;;;;;15.97;14.03;;;13.20;99.90;;;;;;4961562;28;20426;-72
2023/10/19 05:26:48;;;;;;;17.00;15.30;;;13.20;99.90;;;;;;4965680;28;20267;-71
2023/10/19 05:29:13;;;;;;;20.90;17.60;;;13.20;99.90;;;;;;4947091;28;20661;-71
2023/10/19 05:31:39;;;;;;;20.70;16.30;;;13.20;99.90;;;;;;4964505;28;20425;-71
2023/10/19 05:34:05;;;;;;;18.77;16.23;;;13.20;99.90;;;;;;4958569;28;20752;-71
2023/10/19 05:36:32;;;;;;;20.00;16.60;;;13.20;99.90;;;;;;4963384;28;20660;-71
2023/10/19 05:38:57;;;;;;;18.27;16.30;;;13.20;99.90;;;;;;4962605;28;20557;-72
2023/10/19 05:41:23;;;;;;;21.67;18.00;;;13.20;99.90;;;;;;4964260;28;20461;-72
2023/10/19 05:43:49;;;;;;;18.83;16.83;;;13.20;99.90;;;;;;4960662;28;20201;-71
2023/10/19 05:46:18;;;;;;;19.10;16.73;;;13.20;99.90;;;;;;4959763;28;20189;-71
2023/10/19 05:48:45;;;;;;;16.90;14.77;;;13.20;99.90;;;;;;4960599;28;20425;-72
2023/10/19 05:51:11;;;;;;;18.30;16.13;;;13.20;99.90;;;;;;4968353;28;20421;-72
2023/10/19 05:53:37;;;;;;;17.70;15.57;;;13.20;99.90;;;;;;4961685;28;20460;-72
2023/10/19 05:56:03;;;;;;;18.80;16.77;;;13.20;99.90;;;;;;4961406;28;20269;-72
2023/10/19 05:58:28;;;;;;;19.10;17.00;;;13.20;99.90;;;;;;4962451;28;20529;-72
2023/10/19 06:00:58;;;;;;;20.30;15.73;;;13.20;99.90;;;;;;4963150;28;20660;-72
2023/10/19 06:03:24;;;;;;;20.40;16.20;;;13.20;99.90;;;;;;4956422;28;20206;-71
2023/10/19 06:05:50;;;;;;;19.23;16.70;;;13.10;99.90;;;;;;4965606;28;20439;-72
2023/10/19 06:08:15;;;;;;;20.83;17.50;;;13.20;99.90;;;;;;4962382;28;20186;-71
2023/10/19 06:10:42;;;;;;;17.83;15.93;;;13.20;99.90;;;;;;4968133;28;20182;-71
2023/10/19 06:13:09;;;;;;;22.33;16.20;;;13.20;99.90;;;;;;4957821;28;20209;-71
2023/10/19 06:15:35;;;;;;;20.30;16.60;;;13.10;99.90;;;;;;4962078;28;20776;-71
2023/10/19 06:18:01;;;;;;;21.10;17.10;;;13.10;99.90;;;;;;4964324;28;20444;-71
2023/10/19 06:20:26;;;;;;;21.00;16.90;;;13.20;99.90;;;;;;4966189;28;21169;-71
2023/10/19 06:22:55;;;;;;;21.23;16.00;;;13.20;99.90;;;;;;4966330;28;20954;-71
2023/10/19 06:25:22;;;;;;;18.93;16.80;;;13.20;99.90;;;;;;4960711;28;20206;-71
2023/10/19 06:27:50;;;;;;;18.00;16.20;;;13.30;99.90;;;;;;4961822;28;20967;-71
2023/10/19 06:30:18;;;;;;;21.87;15.73;;;13.30;99.90;;;;;;4959202;28;20951;-71
2023/10/19 06:32:55;;;;;;;20.77;16.20;;;13.30;99.90;;;;;;4964042;28;20576;-71
2023/10/19 06:35:22;;;;;;;16.37;14.67;;;13.40;99.90;;;;;;4964778;28;20417;-71
2023/10/19 06:37:48;;;;;;;18.90;16.67;;;13.40;99.90;;;;;;4968594;28;20426;-71
2023/10/19 06:40:16;;;;;;;19.53;15.33;;;13.50;99.90;;;;;;4962216;28;20465;-70
2023/10/19 06:42:43;;;;;;;20.70;17.80;;;13.50;99.90;;;;;;4956270;28;20574;-71
2023/10/19 06:45:12;;;;;;;20.30;16.50;;;13.60;99.90;;;;;;4960126;28;20422;-71
2023/10/19 06:47:38;;;;;;;18.33;16.43;;;13.60;99.90;;;;;;4961647;28;20457;-72
2023/10/19 06:50:09;;;;;;;19.97;17.83;;;13.70;99.90;;;;;;4964005;28;20620;-72
2023/10/19 06:52:38;;;;;;;22.10;16.40;;;13.70;99.90;;;;;;4967933;28;20265;-72
2023/10/19 06:55:10;;;;;;;19.07;16.93;;;13.80;99.90;;;;;;4968852;28;20928;-71
2023/10/19 06:57:36;;;;;;;18.53;16.30;;;13.80;99.90;;;;;;4964121;28;20464;-71
2023/10/19 07:00:14;;;;;;;18.50;15.93;;;13.90;99.90;;;;;;4962489;28;20512;-71
2023/10/19 07:02:41;;;;;;;27.60;16.87;;;14.00;99.90;;;;;;5059294;23;21077;-73
2023/10/19 07:05:10;;;;;;;19.70;15.80;;;14.00;99.90;;;;;;4979293;28;20908;-73
2023/10/19 07:07:36;;;;;;;19.47;15.53;;;14.00;99.90;;;;;;4984293;28;20492;-73
2023/10/19 07:10:03;;;;;;;16.43;14.40;;;14.10;99.90;;;;;;4995983;28;20413;-74
2023/10/19 07:12:32;;;;;;;19.40;16.30;;;14.10;99.90;;;;;;4989441;28;20420;-74
2023/10/19 07:15:00;;;;;;;17.40;15.60;;;14.10;99.90;;;;;;5024204;28;20944;-74
2023/10/19 07:17:27;;;;;;;19.37;16.80;;;14.20;99.90;;;;;;4997414;28;20491;-74
2023/10/19 07:19:53;;;;;;;21.97;18.20;;;14.20;99.90;;;;;;4997299;28;20465;-73
2023/10/19 07:22:22;;;;;;;17.73;15.70;;;14.20;99.90;;;;;;4992726;28;20464;-74
2023/10/19 07:24:48;;;;;;;17.20;15.43;;;14.30;99.90;;;;;;4995716;28;20178;-74
2023/10/19 07:27:18;;;;;;;20.10;15.63;;;14.30;99.90;;;;;;4995770;28;20413;-75
2023/10/19 07:29:44;;;;;;;21.67;16.30;;;14.30;99.90;;;;;;4997578;28;20442;-74
2023/10/19 07:32:13;;;;;;;19.50;17.10;;;14.30;99.90;;;;;;4996827;28;20425;-73
2023/10/19 07:34:39;;;;;;;19.67;16.97;;;14.40;99.90;;;;;;4996003;28;20450;-74
2023/10/19 07:37:07;;;;;;;22.63;16.10;;;14.40;99.90;;;;;;4996364;28;20439;-74
2023/10/19 07:39:33;;;;;;;18.10;15.00;;;14.50;99.90;;;;;;4995544;28;20464;-74
2023/10/19 07:41:59;;;;;;;18.77;15.57;;;14.50;99.90;;;;;;4990656;28;20420;-75
2023/10/19 07:44:25;;;;;;;26.93;15.60;;;14.60;99.90;;;;;;5000138;28;20427;-74
2023/10/19 07:46:52;;;;;;;18.30;15.00;;;14.60;99.90;;;;;;5005381;28;20703;-74
2023/10/19 07:49:17;;;;;;;16.77;14.97;;;14.60;99.90;;;;;;4997931;28;20475;-74
2023/10/19 07:51:51;;;;;;;18.30;16.30;;;14.70;99.90;;;;;;4997568;28;20413;-74
2023/10/19 07:54:16;;;;;;;22.37;16.30;;;14.80;99.90;;;;;;4996055;28;20520;-73
2023/10/19 07:56:43;;;;;;;22.07;18.47;;;14.90;99.90;;;;;;5019157;28;20487;-74
2023/10/19 07:59:09;;;;;;;19.47;14.63;;;14.90;99.90;;;;;;5003225;28;20247;-75
2023/10/19 08:01:36;;;;;;;19.43;16.00;;;15.00;99.90;;;;;;4991488;28;20496;-75
2023/10/19 08:04:01;;;;;;;20.60;17.93;;;15.10;99.90;;;;;;4992784;28;20197;-75
2023/10/19 08:06:27;;;;;;;26.17;19.97;;;15.20;99.90;;;;;;5011054;28;20429;-75
2023/10/19 08:08:53;;;;;;;26.13;18.27;;;15.20;99.90;;;;;;4999039;28;20270;-75
2023/10/19 08:11:18;;;;;;;32.80;21.50;;;15.30;99.90;;;;;;4997943;28;20184;-75
2023/10/19 08:13:44;;;;;;;25.87;18.63;;;15.40;99.90;;;;;;4993970;28;20181;-75
2023/10/19 08:16:12;;;;;;;32.53;24.73;;;15.50;99.90;;;;;;5002705;28;20189;-76
2023/10/19 08:18:37;;;;;;;27.97;21.87;;;15.50;99.90;;;;;;4996280;28;20354;-75
2023/10/19 08:21:03;;;;;;;23.53;16.53;;;15.60;99.90;;;;;;4998798;28;20563;-75
2023/10/19 08:23:31;;;;;;;16.97;14.07;;;15.70;99.90;;;;;;4987293;28;20173;-75
2023/10/19 08:25:57;;;;;;;20.07;15.30;;;15.70;99.90;;;;;;4993711;28;20625;-75
2023/10/19 08:28:22;;;;;;;21.47;15.50;;;15.80;99.90;;;;;;4996914;28;20480;-75
2023/10/19 08:30:57;;;;;;;21.20;14.67;;;15.90;99.90;;;;;;5004959;28;20181;-74
2023/10/19 08:33:25;;;;;;;17.13;13.63;;;15.90;99.90;;;;;;5003184;28;20193;-74
2023/10/19 08:35:53;;;;;;;15.83;14.23;;;16.00;99.90;;;;;;5001048;28;20420;-75
2023/10/19 08:38:19;;;;;;;17.07;13.07;;;16.10;99.90;;;;;;4999145;28;20958;-74
2023/10/19 08:40:45;;;;;;;13.70;12.10;;;16.10;99.90;;;;;;4996157;28;20464;-75
2023/10/19 08:43:13;;;;;;;14.23;12.60;;;16.20;99.90;;;;;;4997803;28;20194;-77
2023/10/19 08:45:39;;;;;;;14.03;12.20;;;16.20;99.90;;;;;;4990585;28;20428;-74
2023/10/19 08:48:05;;;;;;;14.20;12.70;;;16.30;99.90;;;;;;4994436;28;20469;-74
2023/10/19 08:50:33;;;;;;;16.33;13.77;;;16.30;99.90;;;;;;4988979;28;20434;-74
2023/10/19 08:53:03;;;;;;;17.43;13.77;;;16.30;99.90;;;;;;4997510;28;20428;-74
2023/10/19 08:55:30;;;;;;;16.03;13.10;;;16.40;99.90;;;;;;4994227;28;20447;-74
2023/10/19 08:57:58;;;;;;;15.40;13.80;;;16.40;99.90;;;;;;4991201;28;20444;-76
2023/10/19 09:00:27;;;;;;;13.97;12.00;;;16.40;99.90;;;;;;4991375;28;20540;-76
2023/10/19 09:02:54;;;;;;;16.03;13.80;;;16.40;99.90;;;;;;5001667;28;20447;-76
2023/10/19 09:05:26;;;;;;;16.50;13.70;;;16.40;99.90;;;;;;5001548;28;20427;-73
2023/10/19 09:07:55;;;;;;;15.83;13.40;;;16.40;99.90;;;;;;5001379;28;20935;-74
2023/10/19 09:10:31;;;;;;;13.17;10.93;;;16.40;99.90;;;;;;4996245;28;20503;-73
2023/10/19 09:13:09;;;;;;;13.67;12.37;;;16.40;99.90;;;;;;4995154;28;20451;-75
2023/10/19 09:15:39;;;;;;;16.17;12.97;;;16.50;99.90;;;;;;4992944;28;20892;-74
2023/10/19 09:18:16;;;;;;;13.23;11.83;;;16.60;99.90;;;;;;4990226;28;20440;-75
2023/10/19 09:20:52;;;;;;;16.97;13.07;;;16.60;99.90;;;;;;4995777;28;20514;-74
2023/10/19 09:23:21;;;;;;;15.03;13.50;;;16.60;99.90;;;;;;4991947;28;20518;-74
2023/10/19 09:25:47;;;;;;;17.83;13.43;;;16.70;99.90;;;;;;4994176;28;21050;-74
2023/10/19 09:28:13;;;;;;;12.90;11.50;;;16.70;99.90;;;;;;4993996;28;20436;-74
2023/10/19 09:30:40;;;;;;;15.33;12.30;;;16.80;99.90;;;;;;4997070;28;20481;-73
2023/10/19 09:33:07;;;;;;;13.73;11.10;;;17.00;99.90;;;;;;4992499;28;20194;-74
2023/10/19 09:35:34;;;;;;;12.03;10.80;;;17.10;99.90;;;;;;4987087;28;20420;-75
2023/10/19 09:38:00;;;;;;;14.10;10.33;;;17.10;99.90;;;;;;4995218;28;21239;-74
2023/10/19 09:40:29;;;;;;;14.80;10.20;;;17.20;99.90;;;;;;4990081;28;20509;-75
2023/10/19 09:42:58;;;;;;;12.23;11.03;;;17.30;99.90;;;;;;4994700;28;20464;-73
2023/10/19 09:45:30;;;;;;;9.83;8.83;;;17.40;99.90;;;;;;4990532;28;20814;-74
2023/10/19 09:47:56;;;;;;;10.23;9.23;;;17.40;99.90;;;;;;4995471;28;20798;-75
2023/10/19 09:50:22;;;;;;;10.50;8.90;;;17.50;99.90;;;;;;4989250;28;20494;-74
2023/10/19 09:52:49;;;;;;;11.50;9.33;;;17.60;99.90;;;;;;4998861;28;20479;-74
2023/10/19 09:55:19;;;;;;;9.37;8.43;;;17.70;99.90;;;;;;4989530;28;20209;-75
2023/10/19 09:58:14;;;;;;;10.03;9.00;;;17.80;99.90;;;;;;4996768;28;21255;-74
2023/10/19 10:00:49;;;;;;;11.40;9.47;;;17.80;99.90;;;;;;4992959;28;20468;-75
2023/10/19 10:03:42;;;;;;;10.30;9.30;;;17.90;99.90;;;;;;5002485;28;21019;-74
2023/10/19 10:06:13;;;;;;;10.73;8.83;;;17.90;99.90;;;;;;4996132;28;20436;-74
2023/10/19 10:08:42;;;;;;;9.40;8.43;;;18.00;99.90;;;;;;4995881;28;20447;-75
2023/10/19 10:11:21;;;;;;;9.50;7.97;;;18.00;99.90;;;;;;4988166;28;20437;-77
2023/10/19 10:13:54;;;;;;;8.47;7.67;;;18.00;99.90;;;;;;4996547;28;20427;-77
2023/10/19 10:16:26;;;;;;;9.03;8.13;;;17.90;99.90;;;;;;4994561;28;20433;-76
2023/10/19 10:19:01;;;;;;;10.07;8.23;;;17.90;99.90;;;;;;4999593;28;20431;-77
2023/10/19 10:21:29;;;;;;;8.63;7.50;;;17.90;99.90;;;;;;4995600;28;20846;-76
2023/10/19 10:24:04;;;;;;;10.40;8.00;;;17.80;99.90;;;;;;4990253;28;20428;-76
2023/10/19 10:26:36;;;;;;;9.67;8.47;;;17.80;99.90;;;;;;4990217;28;20923;-76
2023/10/19 10:29:14;;;;;;;11.23;8.50;;;17.70;99.90;;;;;;4997496;28;20886;-76
2023/10/19 10:31:44;;;;;;;8.90;7.50;;;17.70;99.90;;;;;;5000762;28;20435;-74
2023/10/19 10:34:11;;;;;;;12.77;8.60;;;17.60;99.90;;;;;;4996376;28;20428;-75
2023/10/19 10:37:02;;;;;;;11.20;8.30;;;17.60;99.90;;;;;;5001776;28;20442;-75
2023/10/19 10:39:30;;;;;;;11.50;8.37;;;17.50;99.90;;;;;;4995045;28;20496;-74
2023/10/19 10:41:59;;;;;;;12.33;9.37;;;17.50;99.90;;;;;;5001938;28;20530;-75
2023/10/19 10:44:45;;;;;;;12.50;9.27;;;17.50;99.90;;;;;;4991231;28;20424;-74
2023/10/19 10:47:16;;;;;;;10.17;8.80;;;17.40;99.90;;;;;;5000889;28;20457;-74
2023/10/19 10:49:52;;;;;;;10.73;9.23;;;17.40;99.90;;;;;;5008098;28;20483;-75
2023/10/19 10:52:35;;;;;;;13.23;9.03;;;17.40;99.90;;;;;;5000584;28;20424;-74
2023/10/19 10:55:10;;;;;;;9.97;9.07;;;17.30;99.90;;;;;;4995825;28;20436;-73
2023/10/19 10:57:37;;;;;;;9.80;8.80;;;17.30;99.90;;;;;;4999581;28;20416;-74
2023/10/19 11:00:09;;;;;;;14.47;11.17;;;17.20;99.90;;;;;;4999777;28;20468;-75
2023/10/19 11:02:36;;;;;;;12.30;9.80;;;17.20;99.90;;;;;;4998442;28;20532;-75
2023/10/19 11:05:03;;;;;;;11.47;10.30;;;17.20;99.90;;;;;;4998016;28;20408;-76
2023/10/19 11:07:29;;;;;;;10.50;9.40;;;17.20;99.90;;;;;;4988781;28;20948;-75
2023/10/19 11:09:55;;;;;;;13.10;9.80;;;17.10;99.90;;;;;;4987188;28;20512;-75
2023/10/19 11:12:21;;;;;;;12.17;10.50;;;17.10;99.90;;;;;;5013463;28;20523;-76
2023/10/19 11:14:53;;;;;;;12.80;9.83;;;17.20;99.90;;;;;;5007765;28;20181;-74
2023/10/19 11:17:19;;;;;;;10.50;9.40;;;17.10;99.90;;;;;;4991026;28;20261;-74
2023/10/19 11:19:44;;;;;;;10.70;9.60;;;17.20;99.90;;;;;;5036601;28;20515;-74
2023/10/19 11:22:11;;;;;;;12.33;9.87;;;17.20;99.90;;;;;;5003151;28;20192;-73
2023/10/19 11:24:39;;;;;;;12.80;11.00;;;17.20;99.90;;;;;;5005606;28;20180;-74
2023/10/19 11:27:07;;;;;;;12.93;10.37;;;17.10;99.90;;;;;;5000869;28;20413;-74
2023/10/19 11:29:36;;;;;;;14.97;11.63;;;17.10;99.90;;;;;;4990853;28;20460;-74
2023/10/19 11:32:02;;;;;;;11.70;10.20;;;17.10;99.90;;;;;;4990742;28;20982;-74
2023/10/19 11:34:29;;;;;;;12.70;11.27;;;17.10;99.90;;;;;;4992340;28;20465;-74
2023/10/19 11:36:59;;;;;;;19.90;11.80;;;17.10;99.90;;;;;;5003598;28;20183;-74
2023/10/19 11:39:28;;;;;;;17.40;12.00;;;17.10;99.90;;;;;;4996065;28;20454;-74
2023/10/19 11:41:54;;;;;;;13.40;11.00;;;17.10;99.90;;;;;;4996730;28;20468;-74
2023/10/19 11:44:20;;;;;;;14.87;12.30;;;17.20;99.90;;;;;;4987522;28;21013;-74
2023/10/19 11:46:45;;;;;;;14.50;10.53;;;17.20;99.90;;;;;;5020560;28;20231;-74
2023/10/19 11:49:11;;;;;;;15.03;11.93;;;17.20;99.90;;;;;;4998801;28;20466;-74
2023/10/19 11:51:37;;;;;;;15.20;12.10;;;17.30;99.90;;;;;;5000478;28;20870;-75
2023/10/19 11:54:06;;;;;;;13.07;11.67;;;17.30;99.90;;;;;;4994170;28;20260;-74
2023/10/19 11:56:31;;;;;;;13.80;11.10;;;17.40;99.90;;;;;;4992584;28;20447;-74
2023/10/19 11:58:57;;;;;;;14.73;10.97;;;17.40;99.90;;;;;;4995921;28;20453;-74
2023/10/19 12:01:24;;;;;;;14.63;12.13;;;17.50;99.90;;;;;;4998575;28;20216;-74
2023/10/19 12:03:51;;;;;;;13.83;10.90;;;17.50;99.90;;;;;;4996871;28;20192;-74
2023/10/19 12:06:20;;;;;;;13.00;11.70;;;17.60;99.90;;;;;;4992712;28;20460;-74
2023/10/19 12:08:46;;;;;;;21.40;13.10;;;17.70;99.90;;;;;;4998639;28;20436;-74
2023/10/19 12:11:16;;;;;;;15.00;11.50;;;17.80;99.90;;;;;;5003606;28;20435;-75
2023/10/19 12:13:45;;;;;;;13.97;11.03;;;17.80;99.90;;;;;;4993072;28;20449;-77
2023/10/19 12:16:15;;;;;;;13.63;11.50;;;17.80;99.90;;;;;;4997414;28;20417;-75
2023/10/19 12:18:44;;;;;;;13.10;11.80;;;17.80;99.90;;;;;;4994856;28;20455;-74
2023/10/19 12:21:14;;;;;;;13.90;11.47;;;17.80;99.90;;;;;;4999443;28;20479;-75
2023/10/19 12:23:40;;;;;;;12.80;11.07;;;17.90;99.90;;;;;;4994017;28;20412;-74
2023/10/19 12:26:11;;;;;;;12.83;11.03;;;18.00;99.90;;;;;;4998723;28;20428;-74
2023/10/19 12:28:41;;;;;;;14.60;11.57;;;18.20;99.90;;;;;;4995069;28;20512;-76
2023/10/19 12:31:10;;;;;;;13.10;10.53;;;18.50;99.90;;;;;;5023508;28;20450;-74
2023/10/19 12:33:38;;;;;;;12.13;10.83;;;18.70;99.90;;;;;;4994045;28;20917;-75
2023/10/19 12:36:24;;;;;;;11.50;9.77;;;18.70;99.90;;;;;;4997758;28;20806;-74
2023/10/19 12:38:57;;;;;;;12.03;10.50;;;18.70;99.90;;;;;;4995889;28;20456;-76
2023/10/19 12:41:24;;;;;;;11.80;10.40;;;18.70;99.90;;;;;;4993107;28;20460;-76
2023/10/19 12:43:57;;;;;;;14.23;10.80;;;18.60;99.90;;;;;;4990077;28;20408;-73
2023/10/19 12:46:25;;;;;;;12.10;10.90;;;18.50;99.90;;;;;;4995031;28;20996;-75
2023/10/19 12:48:57;;;;;;;17.03;12.53;;;18.50;99.90;;;;;;4996922;28;20432;-75
2023/10/19 12:51:23;;;;;;;10.67;9.57;;;18.40;99.90;;;;;;4993594;28;20467;-75
2023/10/19 12:53:53;;;;;;;12.00;10.27;;;18.40;99.90;;;;;;4987883;28;20440;-73
2023/10/19 12:56:20;;;;;;;12.00;10.80;;;18.40;99.90;;;;;;4995732;28;20916;-73
2023/10/19 12:58:48;;;;;;;14.60;12.20;;;18.40;99.90;;;;;;4996716;28;21023;-74
2023/10/19 13:01:18;;;;;;;12.53;10.70;;;18.40;99.90;;;;;;4995954;28;20522;-73
2023/10/19 13:03:45;;;;;;;15.53;11.47;;;18.40;99.90;;;;;;4999498;28;20475;-74